NOS801 LIMC-LTAI
Flight info
| Callsign | NOS801 |
|---|---|
| Flight time | N/A |
| Altitude | 41000 |
| Route | ROBAS DCT ADBAL DCT BAKEP DCT TORPO DCT RILIM DCT PINUK DCT RODON DCT NURSO DCT PINDO UP14 RIKSO UN127 IMR UN135 NESIL |
| Aircraft | B77W/H-SDE1E2E3FGHIJ2J3J4J5M1RWXY/LB1D1 |
Departure
| Time | 2026-05-01 14:12 |
|---|---|
| Airport | Milan Malpensa International Airport (LIMC) |
Arrival
| Time | N/A |
|---|---|
| Airport | Antalya International Airport (LTAI) |
| Time | Latitude | Longitude | Altitude | Speed | Heading |
|---|---|---|---|---|---|
| 2026-05-01 14:02 | 45.61958 | 8.71872 | 741 ft | 0 kts | 258° |
| 2026-05-01 14:03 | 45.61959 | 8.71877 | 741 ft | 2 kts | 258° |
| 2026-05-01 14:03 | 45.61962 | 8.71903 | 739 ft | 3 kts | 259° |
| 2026-05-01 14:03 | 45.61966 | 8.71931 | 738 ft | 3 kts | 259° |
| 2026-05-01 14:03 | 45.61970 | 8.71960 | 738 ft | 3 kts | 259° |
| 2026-05-01 14:04 | 45.61973 | 8.71981 | 737 ft | 2 kts | 262° |
| 2026-05-01 14:04 | 45.61973 | 8.72006 | 739 ft | 3 kts | 303° |
| 2026-05-01 14:04 | 45.61960 | 8.72021 | 738 ft | 3 kts | 345° |
| 2026-05-01 14:04 | 45.61941 | 8.72027 | 739 ft | 2 kts | 349° |
| 2026-05-01 14:05 | 45.61937 | 8.72028 | 739 ft | 0 kts | 348° |
| 2026-05-01 14:07 | 45.61943 | 8.72026 | 739 ft | 3 kts | 348° |
| 2026-05-01 14:07 | 45.61991 | 8.72013 | 738 ft | 11 kts | 349° |
| 2026-05-01 14:07 | 45.62091 | 8.71984 | 739 ft | 18 kts | 349° |
| 2026-05-01 14:08 | 45.62380 | 8.71905 | 741 ft | 22 kts | 349° |
| 2026-05-01 14:08 | 45.62531 | 8.71863 | 740 ft | 22 kts | 349° |
| 2026-05-01 14:08 | 45.62683 | 8.71822 | 741 ft | 22 kts | 349° |
| 2026-05-01 14:08 | 45.62830 | 8.71780 | 740 ft | 21 kts | 349° |
| 2026-05-01 14:09 | 45.62956 | 8.71746 | 740 ft | 18 kts | 349° |
| 2026-05-01 14:09 | 45.63084 | 8.71711 | 739 ft | 19 kts | 349° |
| 2026-05-01 14:09 | 45.63196 | 8.71679 | 740 ft | 13 kts | 349° |
| 2026-05-01 14:09 | 45.63246 | 8.71668 | 740 ft | 6 kts | 0° |
| 2026-05-01 14:10 | 45.63276 | 8.71713 | 741 ft | 8 kts | 66° |
| 2026-05-01 14:10 | 45.63293 | 8.71802 | 740 ft | 10 kts | 78° |
| 2026-05-01 14:10 | 45.63307 | 8.71902 | 739 ft | 10 kts | 79° |
| 2026-05-01 14:10 | 45.63320 | 8.71997 | 739 ft | 10 kts | 79° |
| 2026-05-01 14:11 | 45.63329 | 8.72062 | 742 ft | 6 kts | 79° |
| 2026-05-01 14:11 | 45.63338 | 8.72181 | 742 ft | 6 kts | 108° |
| 2026-05-01 14:11 | 45.63281 | 8.72221 | 743 ft | 21 kts | 166° |
| 2026-05-01 14:12 | 45.62944 | 8.72314 | 744 ft | 102 kts | 169° |
| 2026-05-01 14:12 | 45.61794 | 8.72630 | 1030 ft | 211 kts | 169° |
| 2026-05-01 14:12 | 45.60369 | 8.72889 | 3064 ft | 209 kts | 179° |
| 2026-05-01 14:12 | 45.58862 | 8.72810 | 4163 ft | 229 kts | 174° |
| 2026-05-01 14:13 | 45.57353 | 8.73807 | 4860 ft | 254 kts | 133° |
| 2026-05-01 14:13 | 45.56408 | 8.75981 | 5872 ft | 264 kts | 112° |
| 2026-05-01 14:13 | 45.55645 | 8.78410 | 7096 ft | 273 kts | 113° |
| 2026-05-01 14:13 | 45.54832 | 8.80872 | 8461 ft | 275 kts | 114° |
| 2026-05-01 14:14 | 45.53985 | 8.83329 | 9867 ft | 278 kts | 115° |
| 2026-05-01 14:14 | 45.53095 | 8.85833 | 11008 ft | 289 kts | 116° |
| 2026-05-01 14:14 | 45.52131 | 8.88487 | 11675 ft | 317 kts | 116° |
| 2026-05-01 14:14 | 45.51039 | 8.91433 | 12007 ft | 355 kts | 117° |
| 2026-05-01 14:15 | 45.49827 | 8.94654 | 12736 ft | 376 kts | 117° |
| 2026-05-01 14:15 | 45.48562 | 8.97967 | 14017 ft | 383 kts | 116° |
| 2026-05-01 14:15 | 45.47273 | 9.01313 | 15264 ft | 387 kts | 116° |
| 2026-05-01 14:15 | 45.45969 | 9.04692 | 16484 ft | 392 kts | 116° |
| 2026-05-01 14:16 | 45.44642 | 9.08121 | 17628 ft | 399 kts | 116° |
| 2026-05-01 14:16 | 45.43289 | 9.11613 | 18728 ft | 406 kts | 116° |
| 2026-05-01 14:16 | 45.41908 | 9.15173 | 19672 ft | 414 kts | 116° |
| 2026-05-01 14:16 | 45.40505 | 9.18783 | 20606 ft | 421 kts | 116° |
| 2026-05-01 14:17 | 45.39073 | 9.22462 | 21528 ft | 428 kts | 116° |
| 2026-05-01 14:17 | 45.37616 | 9.26199 | 22437 ft | 435 kts | 116° |
| 2026-05-01 14:17 | 45.36134 | 9.29997 | 23327 ft | 442 kts | 116° |
| 2026-05-01 14:17 | 45.34629 | 9.33855 | 24148 ft | 450 kts | 115° |
| 2026-05-01 14:18 | 45.33102 | 9.37776 | 24799 ft | 457 kts | 115° |
| 2026-05-01 14:18 | 45.31553 | 9.41740 | 25575 ft | 461 kts | 116° |
| 2026-05-01 14:18 | 45.29984 | 9.45739 | 26355 ft | 465 kts | 116° |
| 2026-05-01 14:18 | 45.28936 | 9.48403 | 26842 ft | 468 kts | 116° |
| 2026-05-01 14:19 | 45.26813 | 9.53790 | 27774 ft | 474 kts | 116° |
| 2026-05-01 14:19 | 45.25192 | 9.57894 | 28425 ft | 479 kts | 116° |
| 2026-05-01 14:19 | 45.23552 | 9.62041 | 29063 ft | 484 kts | 116° |
| 2026-05-01 14:19 | 45.21897 | 9.66222 | 29675 ft | 488 kts | 116° |
| 2026-05-01 14:20 | 45.20226 | 9.70434 | 30271 ft | 492 kts | 115° |
| 2026-05-01 14:20 | 45.17141 | 9.79082 | 31365 ft | 490 kts | 111° |
| 2026-05-01 14:20 | 45.15699 | 9.83439 | 32039 ft | 487 kts | 111° |
| 2026-05-01 14:21 | 45.14268 | 9.87776 | 32651 ft | 486 kts | 111° |
| 2026-05-01 14:21 | 45.12832 | 9.92118 | 33225 ft | 486 kts | 111° |
| 2026-05-01 14:21 | 45.11395 | 9.96442 | 33831 ft | 485 kts | 111° |
| 2026-05-01 14:22 | 45.08519 | 10.05029 | 34991 ft | 482 kts | 111° |
| 2026-05-01 14:22 | 45.07079 | 10.09312 | 35383 ft | 483 kts | 111° |
| 2026-05-01 14:22 | 45.05628 | 10.13618 | 35728 ft | 486 kts | 111° |
| 2026-05-01 14:22 | 45.04169 | 10.17940 | 36095 ft | 488 kts | 112° |
| 2026-05-01 14:23 | 45.02705 | 10.22269 | 36475 ft | 489 kts | 112° |
| 2026-05-01 14:23 | 45.01236 | 10.26603 | 36858 ft | 490 kts | 112° |
| 2026-05-01 14:23 | 44.99759 | 10.30957 | 37228 ft | 491 kts | 112° |
| 2026-05-01 14:23 | 44.98278 | 10.35312 | 37594 ft | 492 kts | 112° |
| 2026-05-01 14:24 | 44.96791 | 10.39679 | 38004 ft | 494 kts | 112° |
| 2026-05-01 14:24 | 44.95303 | 10.44045 | 38356 ft | 495 kts | 112° |
| 2026-05-01 14:24 | 44.93803 | 10.48437 | 38706 ft | 496 kts | 112° |
| 2026-05-01 14:24 | 44.92304 | 10.52818 | 39043 ft | 497 kts | 112° |
| 2026-05-01 14:25 | 44.90798 | 10.57212 | 39334 ft | 497 kts | 112° |
| 2026-05-01 14:25 | 44.89293 | 10.61597 | 39666 ft | 497 kts | 112° |
| 2026-05-01 14:25 | 44.87784 | 10.65983 | 39943 ft | 498 kts | 113° |
| 2026-05-01 14:25 | 44.86271 | 10.70378 | 40205 ft | 499 kts | 113° |
| 2026-05-01 14:26 | 44.84759 | 10.74763 | 40560 ft | 498 kts | 112° |
| 2026-05-01 14:26 | 44.81749 | 10.83465 | 41202 ft | 496 kts | 113° |
| 2026-05-01 14:27 | 44.78699 | 10.92265 | 41353 ft | 503 kts | 113° |
| 2026-05-01 14:27 | 44.75629 | 11.01083 | 41356 ft | 499 kts | 113° |
| 2026-05-01 14:28 | 44.71071 | 11.14124 | 41363 ft | 493 kts | 113° |
| 2026-05-01 14:28 | 44.68039 | 11.22770 | 41363 ft | 493 kts | 113° |
| 2026-05-01 14:29 | 44.65003 | 11.31398 | 41352 ft | 493 kts | 113° |
| 2026-05-01 14:30 | 44.58881 | 11.48682 | 41356 ft | 496 kts | 114° |
| 2026-05-01 14:31 | 44.54146 | 11.61621 | 41360 ft | 498 kts | 114° |
| 2026-05-01 14:31 | 44.50987 | 11.70212 | 41365 ft | 499 kts | 114° |
| 2026-05-01 14:32 | 44.47805 | 11.78865 | 41375 ft | 500 kts | 114° |
| 2026-05-01 14:32 | 44.44618 | 11.87514 | 41370 ft | 499 kts | 114° |
| 2026-05-01 14:33 | 44.41428 | 11.96142 | 41374 ft | 498 kts | 114° |
| 2026-05-01 14:33 | 44.38236 | 12.04747 | 41374 ft | 498 kts | 114° |
| 2026-05-01 14:34 | 44.35042 | 12.13333 | 41382 ft | 497 kts | 114° |
| 2026-05-01 14:34 | 44.31848 | 12.21891 | 41375 ft | 496 kts | 114° |
| 2026-05-01 14:35 | 44.28675 | 12.30369 | 41371 ft | 496 kts | 114° |
| 2026-05-01 14:35 | 44.25473 | 12.38896 | 41373 ft | 496 kts | 114° |
| 2026-05-01 14:36 | 44.22263 | 12.47422 | 41369 ft | 496 kts | 114° |
| 2026-05-01 14:36 | 44.19049 | 12.55934 | 41344 ft | 496 kts | 114° |
| 2026-05-01 14:37 | 44.16001 | 12.64521 | 41362 ft | 493 kts | 111° |
| 2026-05-01 14:37 | 44.13188 | 12.73228 | 41344 ft | 493 kts | 110° |
| 2026-05-01 14:38 | 44.10407 | 12.81881 | 41352 ft | 493 kts | 110° |
| 2026-05-01 14:38 | 44.07578 | 12.90579 | 41347 ft | 493 kts | 110° |
| 2026-05-01 14:39 | 44.04736 | 12.99246 | 41340 ft | 492 kts | 111° |
| 2026-05-01 14:39 | 44.01884 | 13.07908 | 41341 ft | 492 kts | 111° |
| 2026-05-01 14:40 | 43.99034 | 13.16537 | 41354 ft | 492 kts | 111° |
| 2026-05-01 14:40 | 43.96176 | 13.25169 | 41340 ft | 492 kts | 111° |
| 2026-05-01 14:41 | 43.93312 | 13.33788 | 41331 ft | 492 kts | 111° |
| 2026-05-01 14:41 | 43.90442 | 13.42399 | 41330 ft | 492 kts | 111° |
| 2026-05-01 14:42 | 43.87584 | 13.50945 | 41348 ft | 492 kts | 111° |
| 2026-05-01 14:42 | 43.84702 | 13.59539 | 41331 ft | 492 kts | 111° |
| 2026-05-01 14:43 | 43.81811 | 13.68129 | 41321 ft | 491 kts | 111° |
| 2026-05-01 14:43 | 43.78916 | 13.76704 | 41313 ft | 491 kts | 111° |
| 2026-05-01 14:44 | 43.76012 | 13.85280 | 41317 ft | 495 kts | 111° |
| 2026-05-01 14:44 | 43.71576 | 13.98335 | 41320 ft | 507 kts | 112° |
| 2026-05-01 14:45 | 43.67025 | 14.11649 | 41310 ft | 513 kts | 112° |
| 2026-05-01 14:46 | 43.63967 | 14.20559 | 41308 ft | 514 kts | 112° |
| 2026-05-01 14:46 | 43.59862 | 14.32480 | 41298 ft | 513 kts | 112° |
| 2026-05-01 14:47 | 43.56815 | 14.41299 | 41287 ft | 511 kts | 112° |
| 2026-05-01 14:48 | 43.52101 | 14.54432 | 41284 ft | 508 kts | 114° |
| 2026-05-01 14:48 | 43.47316 | 14.67428 | 41275 ft | 506 kts | 114° |
| 2026-05-01 14:49 | 43.40951 | 14.84756 | 41273 ft | 508 kts | 114° |
| 2026-05-01 14:50 | 43.34551 | 15.02093 | 41278 ft | 512 kts | 114° |
| 2026-05-01 14:51 | 43.29686 | 15.15196 | 41262 ft | 514 kts | 114° |
| 2026-05-01 14:52 | 43.24790 | 15.28318 | 41252 ft | 515 kts | 114° |
| 2026-05-01 14:53 | 43.19901 | 15.41360 | 41242 ft | 514 kts | 114° |
| 2026-05-01 14:53 | 43.16625 | 15.50067 | 41235 ft | 513 kts | 114° |
| 2026-05-01 14:54 | 43.13341 | 15.58769 | 41235 ft | 515 kts | 115° |
| 2026-05-01 14:54 | 43.10037 | 15.67499 | 41241 ft | 517 kts | 115° |
| 2026-05-01 14:55 | 43.06718 | 15.76238 | 41234 ft | 518 kts | 115° |
| 2026-05-01 14:55 | 43.03385 | 15.84988 | 41224 ft | 519 kts | 115° |
| 2026-05-01 14:56 | 43.00036 | 15.93753 | 41225 ft | 520 kts | 115° |
| 2026-05-01 14:56 | 42.96677 | 16.02516 | 41235 ft | 520 kts | 115° |
| 2026-05-01 14:57 | 42.93311 | 16.11270 | 41215 ft | 521 kts | 115° |
| 2026-05-01 14:57 | 42.88272 | 16.24328 | 41211 ft | 520 kts | 115° |
| 2026-05-01 14:58 | 42.84892 | 16.33053 | 41205 ft | 520 kts | 116° |
| 2026-05-01 14:58 | 42.81510 | 16.41757 | 41210 ft | 519 kts | 116° |
| 2026-05-01 14:59 | 42.78125 | 16.50439 | 41200 ft | 519 kts | 116° |
| 2026-05-01 14:59 | 42.74737 | 16.59106 | 41201 ft | 519 kts | 116° |
| 2026-05-01 15:00 | 42.69641 | 16.72097 | 41211 ft | 519 kts | 116° |
| 2026-05-01 15:01 | 42.66237 | 16.80743 | 41199 ft | 520 kts | 116° |
| 2026-05-01 15:01 | 42.62702 | 16.89251 | 41191 ft | 521 kts | 119° |
| 2026-05-01 15:02 | 42.58962 | 16.97688 | 41186 ft | 522 kts | 119° |
| 2026-05-01 15:02 | 42.55216 | 17.06127 | 41191 ft | 522 kts | 119° |
| 2026-05-01 15:03 | 42.51495 | 17.14587 | 41168 ft | 523 kts | 119° |
| 2026-05-01 15:03 | 42.47768 | 17.23080 | 41171 ft | 524 kts | 119° |
| 2026-05-01 15:04 | 42.44030 | 17.31576 | 41169 ft | 525 kts | 119° |
| 2026-05-01 15:04 | 42.40277 | 17.40073 | 41173 ft | 526 kts | 120° |
| 2026-05-01 15:05 | 42.36507 | 17.48581 | 41155 ft | 527 kts | 120° |
| 2026-05-01 15:05 | 42.32730 | 17.57082 | 41153 ft | 527 kts | 120° |
| 2026-05-01 15:06 | 42.28980 | 17.65495 | 41143 ft | 526 kts | 120° |
| 2026-05-01 15:06 | 42.25197 | 17.73960 | 41145 ft | 526 kts | 120° |
| 2026-05-01 15:07 | 42.21407 | 17.82419 | 41131 ft | 527 kts | 120° |
| 2026-05-01 15:07 | 42.17607 | 17.90874 | 41139 ft | 527 kts | 121° |
| 2026-05-01 15:08 | 42.13799 | 17.99322 | 41146 ft | 528 kts | 121° |
| 2026-05-01 15:08 | 42.09979 | 18.07775 | 41144 ft | 529 kts | 121° |
| 2026-05-01 15:09 | 42.06147 | 18.16231 | 41144 ft | 529 kts | 121° |
| 2026-05-01 15:09 | 42.02305 | 18.24682 | 41145 ft | 529 kts | 121° |
| 2026-05-01 15:10 | 41.98458 | 18.33123 | 41144 ft | 529 kts | 121° |
| 2026-05-01 15:10 | 41.92699 | 18.45720 | 41153 ft | 530 kts | 121° |
| 2026-05-01 15:11 | 41.86680 | 18.58187 | 41143 ft | 531 kts | 128° |
| 2026-05-01 15:12 | 41.81660 | 18.65440 | 41145 ft | 531 kts | 137° |
| 2026-05-01 15:12 | 41.73493 | 18.75497 | 41143 ft | 532 kts | 138° |
| 2026-05-01 15:14 | 41.59961 | 18.92390 | 41118 ft | 534 kts | 138° |
| 2026-05-01 15:14 | 41.51801 | 19.02553 | 41120 ft | 535 kts | 138° |
| 2026-05-01 15:15 | 41.41772 | 19.17178 | 41114 ft | 537 kts | 126° |
| 2026-05-01 15:16 | 41.33134 | 19.33431 | 41096 ft | 538 kts | 126° |
| 2026-05-01 15:18 | 41.22158 | 19.53618 | 41101 ft | 539 kts | 127° |
| 2026-05-01 15:19 | 41.13355 | 19.69703 | 41096 ft | 540 kts | 127° |
| 2026-05-01 15:19 | 41.06716 | 19.81786 | 41094 ft | 540 kts | 127° |
| 2026-05-01 15:20 | 41.00056 | 19.93855 | 41084 ft | 541 kts | 127° |
| 2026-05-01 15:21 | 40.95612 | 20.01885 | 41088 ft | 541 kts | 127° |
| 2026-05-01 15:21 | 40.91160 | 20.09906 | 41096 ft | 541 kts | 127° |
| 2026-05-01 15:22 | 40.84504 | 20.21861 | 41106 ft | 541 kts | 127° |
| 2026-05-01 15:22 | 40.80038 | 20.29857 | 41103 ft | 541 kts | 128° |
| 2026-05-01 15:23 | 40.75561 | 20.37854 | 41103 ft | 542 kts | 128° |
| 2026-05-01 15:23 | 40.71069 | 20.45856 | 41110 ft | 542 kts | 128° |
| 2026-05-01 15:24 | 40.66602 | 20.53871 | 41126 ft | 544 kts | 126° |
| 2026-05-01 15:24 | 40.62697 | 20.62414 | 41137 ft | 545 kts | 120° |
| 2026-05-01 15:25 | 40.58954 | 20.71092 | 41128 ft | 545 kts | 121° |
| 2026-05-01 15:25 | 40.55158 | 20.79730 | 41148 ft | 545 kts | 121° |
| 2026-05-01 15:26 | 40.51326 | 20.88350 | 41158 ft | 545 kts | 121° |
| 2026-05-01 15:26 | 40.47698 | 20.97104 | 41160 ft | 546 kts | 115° |
| 2026-05-01 15:27 | 40.45026 | 21.06446 | 41169 ft | 546 kts | 109° |
| 2026-05-01 15:28 | 40.41298 | 21.20526 | 41165 ft | 547 kts | 110° |
| 2026-05-01 15:28 | 40.38747 | 21.29932 | 41179 ft | 548 kts | 110° |
| 2026-05-01 15:29 | 40.34862 | 21.44037 | 41194 ft | 549 kts | 110° |
| 2026-05-01 15:30 | 40.30085 | 21.61277 | 41185 ft | 550 kts | 110° |
| 2026-05-01 15:31 | 40.21775 | 21.91030 | 41192 ft | 550 kts | 111° |
| 2026-05-01 15:32 | 40.16482 | 22.09798 | 41203 ft | 550 kts | 111° |
| 2026-05-01 15:34 | 40.08936 | 22.36327 | 41244 ft | 549 kts | 111° |